createdAt,value
2022-08-30T00:03:59.918Z,26.22
2022-08-30T00:09:03.279Z,26.22
2022-08-30T00:14:06.931Z,26.19
2022-08-30T00:19:11.537Z,26.16
2022-08-30T00:24:15.053Z,26.14
2022-08-30T00:29:18.582Z,26.18
2022-08-30T00:34:23.904Z,26.15
2022-08-30T00:39:27.939Z,26.11
2022-08-30T00:44:34.424Z,26.10
2022-08-30T00:49:42.372Z,26.13
2022-08-30T00:54:47.962Z,26.08
2022-08-30T00:59:52.901Z,26.04
2022-08-30T01:05:01.648Z,26.04
2022-08-30T01:10:09.383Z,26.08
2022-08-30T01:15:15.345Z,26.13
2022-08-30T01:20:29.670Z,26.13
2022-08-30T01:25:40.106Z,26.09
2022-08-30T01:30:43.440Z,26.04
2022-08-30T01:35:55.854Z,26.01
2022-08-30T01:41:01.338Z,26.04
2022-08-30T01:46:07.316Z,26.02
2022-08-30T01:51:13.666Z,26.03
2022-08-30T01:56:17.678Z,26.05
2022-08-30T02:01:26.963Z,26.08
2022-08-30T02:06:30.105Z,26.07
2022-08-30T02:11:33.990Z,26.08
2022-08-30T02:16:38.009Z,26.06
2022-08-30T02:21:41.712Z,25.95
2022-08-30T02:26:45.743Z,25.93
2022-08-30T02:31:50.078Z,25.92
2022-08-30T02:36:55.307Z,25.96
2022-08-30T02:41:58.455Z,25.97
2022-08-30T02:47:05.375Z,25.99
2022-08-30T02:52:08.772Z,25.99
2022-08-30T02:57:19.983Z,25.97
2022-08-30T03:02:32.068Z,25.98
2022-08-30T03:07:35.385Z,25.95
2022-08-30T03:12:38.990Z,25.96
2022-08-30T03:17:42.602Z,25.95
2022-08-30T03:22:47.730Z,25.94
2022-08-30T03:27:51.425Z,25.91
2022-08-30T03:32:58.020Z,25.95
2022-08-30T03:38:01.458Z,25.96
2022-08-30T03:43:06.613Z,25.96
2022-08-30T03:48:11.074Z,26.00
2022-08-30T03:53:15.175Z,26.02
2022-08-30T03:58:19.461Z,26.04
2022-08-30T04:03:22.840Z,26.04
2022-08-30T04:08:29.651Z,26.04
2022-08-30T04:13:35.940Z,26.09
2022-08-30T04:18:39.259Z,26.16
2022-08-30T04:23:46.399Z,26.20
2022-08-30T04:28:50.226Z,26.25
2022-08-30T04:33:53.617Z,26.32
2022-08-30T04:39:02.847Z,26.31
2022-08-30T04:44:19.202Z,26.31
2022-08-30T04:49:23.757Z,26.35
2022-08-30T04:54:28.897Z,26.36
2022-08-30T04:59:35.083Z,26.39
2022-08-30T05:04:44.253Z,26.44
2022-08-30T05:09:48.667Z,26.54
2022-08-30T05:15:05.750Z,26.74
2022-08-30T05:20:11.671Z,26.91
2022-08-30T05:25:16.748Z,26.99
2022-08-30T05:30:21.933Z,27.08
2022-08-30T05:35:26.134Z,27.22
2022-08-30T05:40:32.865Z,27.32
2022-08-30T05:45:39.003Z,27.35
2022-08-30T05:50:42.746Z,27.43
2022-08-30T05:55:46.730Z,27.56
2022-08-30T06:00:53.376Z,27.65
2022-08-30T06:06:02.433Z,27.77
2022-08-30T06:11:09.268Z,27.79
2022-08-30T06:16:14.770Z,27.94
2022-08-30T06:21:35.803Z,28.31
2022-08-30T06:26:42.731Z,28.44
2022-08-30T06:31:46.655Z,28.48
2022-08-30T06:36:51.148Z,28.58
2022-08-30T06:41:56.765Z,28.72
2022-08-30T06:47:05.929Z,28.99
2022-08-30T06:52:09.465Z,29.36
2022-08-30T06:57:15.449Z,29.62
2022-08-30T07:02:19.956Z,29.70
2022-08-30T07:07:28.182Z,29.62
2022-08-30T07:12:33.293Z,29.61
2022-08-30T07:17:39.827Z,29.61
2022-08-30T07:22:42.919Z,29.70
2022-08-30T07:27:47.638Z,29.77
2022-08-30T07:32:57.112Z,29.97
2022-08-30T07:38:01.001Z,30.14
2022-08-30T07:43:04.702Z,30.27
2022-08-30T07:48:08.900Z,30.39
2022-08-30T07:53:12.514Z,30.48
2022-08-30T07:58:15.910Z,30.65
2022-08-30T08:03:19.530Z,30.95
2022-08-30T08:08:23.871Z,31.20
2022-08-30T08:13:28.588Z,31.36
2022-08-30T08:18:38.438Z,31.54
2022-08-30T08:23:42.230Z,31.69
2022-08-30T08:28:45.964Z,31.81
2022-08-30T08:33:49.477Z,31.80
2022-08-30T08:38:53.866Z,31.79
2022-08-30T08:44:00.204Z,31.82
2022-08-30T08:49:08.823Z,31.73
2022-08-30T08:54:32.672Z,31.82
2022-08-30T08:59:36.028Z,31.75
2022-08-30T09:04:42.735Z,31.64
2022-08-30T09:09:48.678Z,31.50
2022-08-30T09:14:55.789Z,31.44
2022-08-30T09:20:01.245Z,31.35
2022-08-30T09:25:10.201Z,31.37
2022-08-30T09:30:27.091Z,31.34
2022-08-30T09:35:44.343Z,31.34
2022-08-30T09:40:51.544Z,31.34
2022-08-30T09:46:01.271Z,31.39
2022-08-30T09:51:12.231Z,31.35
2022-08-30T09:56:26.261Z,31.30
2022-08-30T10:01:36.995Z,31.23
2022-08-30T10:07:05.430Z,31.11
2022-08-30T10:12:24.351Z,30.95
2022-08-30T10:18:16.655Z,30.84
2022-08-30T10:23:33.527Z,30.78
2022-08-30T10:28:50.542Z,30.71
2022-08-30T10:34:03.362Z,30.72
2022-08-30T10:39:15.127Z,30.68
2022-08-30T10:44:28.090Z,30.57
2022-08-30T10:49:40.416Z,30.46
2022-08-30T10:54:54.786Z,30.43
2022-08-30T11:00:06.052Z,30.42
2022-08-30T11:05:27.660Z,30.33
2022-08-30T11:10:56.306Z,30.30
2022-08-30T11:16:04.479Z,30.32
2022-08-30T11:21:35.715Z,30.28
2022-08-30T11:26:48.170Z,30.29
2022-08-30T11:31:51.456Z,30.33
2022-08-30T11:36:58.134Z,30.38
2022-08-30T11:42:55.246Z,30.44
2022-08-30T11:48:04.372Z,30.45
2022-08-30T11:53:38.085Z,30.46
2022-08-30T11:59:23.081Z,30.45
2022-08-30T12:04:38.871Z,30.45
2022-08-30T12:09:46.135Z,30.45
2022-08-30T12:14:50.544Z,30.57
2022-08-30T12:19:54.956Z,30.58
2022-08-30T12:25:02.554Z,30.46
2022-08-30T12:30:09.977Z,30.47
2022-08-30T12:35:25.470Z,30.43
2022-08-30T12:40:37.252Z,30.38
2022-08-30T12:45:50.835Z,30.27
2022-08-30T12:50:59.521Z,30.21
2022-08-30T12:56:06.486Z,30.24
2022-08-30T13:01:29.215Z,30.16
2022-08-30T13:06:56.167Z,30.02
2022-08-30T13:12:04.168Z,29.96
2022-08-30T13:17:11.222Z,29.94
2022-08-30T13:22:42.882Z,29.92
2022-08-30T13:27:46.591Z,29.87
2022-08-30T13:32:53.016Z,29.90
2022-08-30T13:37:59.929Z,29.80
2022-08-30T13:43:03.470Z,29.66
2022-08-30T13:48:07.243Z,29.60
2022-08-30T13:53:10.941Z,29.48
2022-08-30T13:58:14.495Z,29.40
2022-08-30T14:03:18.061Z,29.31
2022-08-30T14:19:16.207Z,29.01
2022-08-30T14:24:20.025Z,28.90
2022-08-30T14:29:28.463Z,28.82
2022-08-30T14:34:34.002Z,28.77
2022-08-30T14:39:37.969Z,28.66
2022-08-30T14:44:55.806Z,28.59
2022-08-30T14:50:00.145Z,28.48
2022-08-30T14:55:09.039Z,28.41
2022-08-30T15:00:14.000Z,28.33
2022-08-30T15:05:18.698Z,28.22
2022-08-30T15:10:23.863Z,28.15
2022-08-30T15:15:27.480Z,28.10
2022-08-30T15:20:30.810Z,28.05
2022-08-30T15:25:34.112Z,27.90
2022-08-30T15:30:38.159Z,27.81
2022-08-30T15:35:44.505Z,27.77
2022-08-30T15:40:50.505Z,27.68
2022-08-30T15:45:55.287Z,27.59
2022-08-30T15:50:59.506Z,27.52
2022-08-30T15:56:03.222Z,27.41
2022-08-30T16:01:08.014Z,27.35
2022-08-30T16:06:16.914Z,27.25
2022-08-30T16:11:30.527Z,27.18
2022-08-30T16:16:34.466Z,27.11
2022-08-30T16:21:39.832Z,27.03
2022-08-30T16:26:44.980Z,26.99
2022-08-30T16:31:49.082Z,26.92
2022-08-30T16:36:52.503Z,26.87
2022-08-30T16:41:57.083Z,26.83
2022-08-30T16:47:01.098Z,26.81
2022-08-30T16:52:04.843Z,26.71
2022-08-30T16:57:10.704Z,26.66
2022-08-30T17:02:15.990Z,26.62
2022-08-30T17:07:22.413Z,26.60
2022-08-30T17:12:28.371Z,26.59
2022-08-30T17:17:34.576Z,26.55
2022-08-30T17:22:38.054Z,26.58
2022-08-30T17:27:41.906Z,26.54
2022-08-30T17:32:45.649Z,26.59
2022-08-30T17:37:53.998Z,26.59
2022-08-30T17:42:58.516Z,26.54
2022-08-30T17:48:02.710Z,26.56
2022-08-30T17:53:06.157Z,26.56
2022-08-30T17:58:10.189Z,26.54
2022-08-30T18:03:14.054Z,26.49
2022-08-30T18:08:18.810Z,26.49
2022-08-30T18:13:25.305Z,26.56
2022-08-30T18:18:28.915Z,26.58
2022-08-30T18:23:32.971Z,26.61
2022-08-30T18:28:37.962Z,26.64
2022-08-30T18:33:42.566Z,26.67
2022-08-30T18:38:47.695Z,26.69
2022-08-30T18:44:05.828Z,26.73
2022-08-30T18:49:16.542Z,26.75
2022-08-30T18:54:20.636Z,26.76
2022-08-30T18:59:24.434Z,26.76
2022-08-30T19:04:42.732Z,26.77
2022-08-30T19:09:51.353Z,26.78
2022-08-30T19:14:57.622Z,26.80
2022-08-30T19:20:01.991Z,26.77
2022-08-30T19:25:08.174Z,26.74
2022-08-30T19:30:24.001Z,26.78
2022-08-30T19:35:30.650Z,26.79
2022-08-30T19:40:34.102Z,26.78
2022-08-30T19:45:40.137Z,26.82
2022-08-30T19:50:48.654Z,26.84
2022-08-30T19:55:52.801Z,26.86
2022-08-30T20:01:01.275Z,26.91
2022-08-30T20:06:15.335Z,26.94
2022-08-30T20:11:21.776Z,26.91
2022-08-30T20:16:33.073Z,26.87
2022-08-30T20:21:41.609Z,26.87
2022-08-30T20:26:47.547Z,26.87
2022-08-30T20:31:51.445Z,26.86
2022-08-30T20:36:57.962Z,26.87
2022-08-30T20:42:01.478Z,26.88
2022-08-30T20:47:05.038Z,26.83
2022-08-30T20:52:10.501Z,26.85
2022-08-30T20:57:23.842Z,26.84
2022-08-30T21:02:28.119Z,26.85
2022-08-30T21:07:32.495Z,26.85
2022-08-30T21:12:36.261Z,26.84
2022-08-30T21:17:40.263Z,26.84
2022-08-30T21:22:45.277Z,26.86
2022-08-30T21:27:48.945Z,26.86
2022-08-30T21:32:53.251Z,26.84
2022-08-30T21:37:56.882Z,26.84
2022-08-30T21:43:05.871Z,26.84
2022-08-30T21:48:10.460Z,26.80
2022-08-30T21:53:17.313Z,26.77
2022-08-30T21:58:20.754Z,26.72
2022-08-30T22:03:25.393Z,26.72
2022-08-30T22:08:30.430Z,26.71
2022-08-30T22:13:35.890Z,26.68
2022-08-30T22:18:40.036Z,26.65
2022-08-30T22:23:43.561Z,26.60
2022-08-30T22:28:47.444Z,26.62
2022-08-30T22:33:52.980Z,26.67
2022-08-30T22:39:00.044Z,26.71
2022-08-30T22:44:08.707Z,26.71
2022-08-30T22:49:13.398Z,26.72
2022-08-30T22:54:17.061Z,26.71
2022-08-30T22:59:20.448Z,26.71
2022-08-30T23:04:31.116Z,26.70
2022-08-30T23:09:34.349Z,26.71
2022-08-30T23:14:37.677Z,26.68
2022-08-30T23:19:41.105Z,26.67
2022-08-30T23:24:46.313Z,26.65
2022-08-30T23:29:55.661Z,26.60
2022-08-30T23:34:59.646Z,26.60
2022-08-30T23:40:04.800Z,26.60
2022-08-30T23:45:08.730Z,26.61
2022-08-30T23:50:12.094Z,26.61
2022-08-30T23:55:15.432Z,26.62
